This is the latest recevied weather packets stored in our database for station/object IW1CBG-3. If no packets are shown the sender has not sent any weather packets the latest 10 day(s).
| Time | Temp. | Humidity | Pressure | Rain* | Wind** | Luminosity | Snow |
|---|---|---|---|---|---|---|---|
| 1777800639 | 16.67° C | 52% | 1030 hPa | 0 mm | - | - | - |
| 1777800038 | 16.11° C | 55% | 1030.1 hPa | 0 mm | - | - | - |
| 1777799439 | 15.56° C | 54% | 1030.5 hPa | 0 mm | - | - | - |
| 1777798840 | 15.56° C | 52% | 1030.5 hPa | 0 mm | - | - | - |
| 1777798239 | 16.11° C | 52% | 1030.4 hPa | 0 mm | - | - | - |
| 1777797639 | 15° C | 49% | 1030.7 hPa | 0 mm | - | - | - |
| 1777797040 | 13.89° C | 53% | 1031.3 hPa | 0 mm | - | - | - |
| 1777796439 | 13.33° C | 56% | 1031.3 hPa | 0 mm | - | - | - |
| 1777795839 | 13.33° C | 55% | 1031.6 hPa | 0 mm | - | - | - |
| 1777795238 | 13.33° C | 54% | 1031.4 hPa | 0 mm | - | - | - |
| 1777794639 | 12.78° C | 54% | 1031.4 hPa | 0 mm | - | - | - |
| 1777794038 | 12.22° C | 55% | 1031.7 hPa | 0 mm | - | - | - |
| 1777793439 | 11.67° C | 57% | 1032.1 hPa | 0 mm | - | - | - |
| 1777792838 | 11.11° C | 60% | 1032.3 hPa | 0 mm | - | - | - |
| 1777792238 | 11.11° C | 61% | 1031.8 hPa | 0 mm | - | - | - |
| 1777791639 | 10.56° C | 60% | 1032.3 hPa | 0 mm | - | - | - |
| 1777791039 | 10.56° C | 62% | 1032.3 hPa | 0 mm | - | - | - |
| 1777790438 | 10° C | 61% | 1032.4 hPa | 0 mm | - | - | - |
| 1777789839 | 10° C | 60% | 1032.5 hPa | 0 mm | - | - | - |
| 1777789238 | 9.44° C | 62% | 1032.8 hPa | 0 mm | - | - | - |
| 1777788638 | 8.89° C | 69% | 1033 hPa | 0 mm | - | - | - |
| 1777788038 | 8.33° C | 68% | 1033.3 hPa | 0 mm | - | - | - |
| 1777787439 | 7.78° C | 71% | 1033.6 hPa | 0 mm | - | - | - |
| 1777786839 | 6.67° C | 76% | 1033.9 hPa | 0 mm | - | - | - |
| 1777786239 | 6.67° C | 73% | 1033.6 hPa | 0 mm | - | - | - |
* Rain latest hour (hover to see other rain measurements)
** Current wind speed in m/s (hover to see current wind gust speed)